createdAt,value
2019-03-21T00:00:17.545Z,6.60
2019-03-21T00:02:45.400Z,3.60
2019-03-21T00:05:13.260Z,7.40
2019-03-21T00:07:59.950Z,7.00
2019-03-21T00:10:31.004Z,4.80
2019-03-21T00:18:51.965Z,4.00
2019-03-21T00:24:11.941Z,4.40
2019-03-21T00:26:58.409Z,4.40
2019-03-21T00:29:26.177Z,4.00
2019-03-21T00:32:12.666Z,6.80
2019-03-21T00:34:40.480Z,6.00
2019-03-21T00:37:26.855Z,6.40
2019-03-21T00:40:13.287Z,6.80
2019-03-21T00:43:11.882Z,8.60
2019-03-21T00:45:29.400Z,7.00
2019-03-21T00:48:15.878Z,5.20
2019-03-21T00:53:49.055Z,4.00
2019-03-21T00:59:03.409Z,6.80
2019-03-21T01:01:49.841Z,6.40
2019-03-21T01:04:17.751Z,9.00
2019-03-21T01:07:04.158Z,8.60
2019-03-21T01:09:32.211Z,5.80
2019-03-21T01:12:18.856Z,7.80
2019-03-21T01:17:39.066Z,9.60
2019-03-21T01:22:39.588Z,7.00
2019-03-21T01:25:26.068Z,9.00
2019-03-21T01:30:59.027Z,6.00
2019-03-21T01:33:45.443Z,5.60
2019-03-21T01:36:32.155Z,4.40
2019-03-21T01:47:11.363Z,5.20
2019-03-21T01:49:58.154Z,4.80
2019-03-21T01:52:44.842Z,6.20
2019-03-21T01:57:45.980Z,4.00
2019-03-21T02:03:00.329Z,4.00
2019-03-21T02:05:28.614Z,6.00
2019-03-21T02:08:15.322Z,3.40
2019-03-21T02:16:08.197Z,3.60
2019-03-21T02:18:54.643Z,3.00
2019-03-21T02:21:41.099Z,4.00
2019-03-21T02:27:14.025Z,3.80
2019-03-21T02:32:46.926Z,4.40
2019-03-21T02:37:47.878Z,4.40
2019-03-21T02:40:34.300Z,6.00
2019-03-21T02:45:53.419Z,7.40
2019-03-21T02:48:21.222Z,9.40
2019-03-21T02:51:07.671Z,7.80
2019-03-21T02:53:35.497Z,4.80
2019-03-21T02:56:03.229Z,6.20
2019-03-21T02:58:49.701Z,7.40
2019-03-21T03:01:36.070Z,7.80
2019-03-21T03:06:55.244Z,7.00
2019-03-21T03:09:42.001Z,5.60
2019-03-21T03:15:22.654Z,4.80
2019-03-21T03:20:51.180Z,6.00
2019-03-21T03:28:44.251Z,7.80
2019-03-21T03:31:30.685Z,10.00
2019-03-21T03:34:17.066Z,5.60
2019-03-21T03:39:37.247Z,6.20
2019-03-21T03:42:24.036Z,6.40
2019-03-21T03:45:10.413Z,6.40
2019-03-21T03:47:38.083Z,5.60
2019-03-21T03:50:24.367Z,6.60
2019-03-21T03:52:52.160Z,8.20
2019-03-21T03:55:38.507Z,3.60
2019-03-21T03:58:06.222Z,7.20
2019-03-21T04:00:33.925Z,9.00
2019-03-21T04:03:20.634Z,6.00
2019-03-21T04:06:07.054Z,7.00
2019-03-21T04:08:34.747Z,7.40
2019-03-21T04:11:21.190Z,6.00
2019-03-21T04:13:48.778Z,7.40
2019-03-21T04:16:35.161Z,6.60
2019-03-21T04:19:21.570Z,6.00
2019-03-21T04:21:49.183Z,6.60
2019-03-21T04:24:35.618Z,9.00
2019-03-21T04:27:03.235Z,11.20
2019-03-21T04:29:49.567Z,6.40
2019-03-21T04:32:35.860Z,9.00
2019-03-21T04:37:36.661Z,7.40
2019-03-21T04:40:04.267Z,6.20
2019-03-21T04:42:31.923Z,9.80
2019-03-21T04:45:18.244Z,9.00
2019-03-21T04:47:45.939Z,9.00
2019-03-21T04:50:32.624Z,7.80
2019-03-21T04:53:19.009Z,9.20
2019-03-21T04:55:46.597Z,9.00
2019-03-21T04:58:32.900Z,6.80
2019-03-21T05:01:19.337Z,7.00
2019-03-21T05:04:05.990Z,5.60
2019-03-21T05:09:07.110Z,6.40
2019-03-21T05:11:53.498Z,6.60
2019-03-21T05:14:39.907Z,7.20
2019-03-21T05:17:26.235Z,2.20
2019-03-21T05:19:53.727Z,5.60
2019-03-21T05:22:40.141Z,6.00
2019-03-21T05:25:26.584Z,9.00
2019-03-21T05:28:12.965Z,8.20
2019-03-21T05:31:01.416Z,6.60
2019-03-21T05:33:47.777Z,6.20
2019-03-21T05:36:15.318Z,9.00
2019-03-21T05:39:01.742Z,7.80
2019-03-21T05:41:48.133Z,7.20
2019-03-21T05:44:36.439Z,7.80
2019-03-21T05:47:04.138Z,6.20
2019-03-21T05:49:31.804Z,3.00
2019-03-21T05:52:18.254Z,7.00
2019-03-21T05:55:04.632Z,5.20
2019-03-21T05:57:51.033Z,9.00
2019-03-21T06:03:25.366Z,6.60
2019-03-21T06:08:46.292Z,6.00
2019-03-21T06:19:35.766Z,4.00
2019-03-21T06:22:03.315Z,6.60
2019-03-21T06:24:49.649Z,5.00
2019-03-21T06:27:17.674Z,7.40
2019-03-21T06:30:04.118Z,7.00
2019-03-21T06:32:31.837Z,7.00
2019-03-21T06:35:18.272Z,6.00
2019-03-21T06:37:46.004Z,11.20
2019-03-21T06:40:32.400Z,7.00
2019-03-21T06:43:18.835Z,7.80
2019-03-21T06:46:05.226Z,6.60
2019-03-21T06:48:32.846Z,11.60
2019-03-21T06:51:19.254Z,8.80
2019-03-21T06:53:46.935Z,9.00
2019-03-21T06:56:33.366Z,9.20
2019-03-21T06:59:01.389Z,9.40
2019-03-21T07:01:28.978Z,9.60
2019-03-21T07:04:15.391Z,13.20
2019-03-21T07:06:43.026Z,14.60
2019-03-21T07:09:29.484Z,9.40
2019-03-21T07:12:15.827Z,12.60
2019-03-21T07:15:04.398Z,12.60
2019-03-21T07:17:50.329Z,10.00
2019-03-21T07:20:36.772Z,9.60
2019-03-21T07:23:25.882Z,12.40
2019-03-21T07:26:12.254Z,11.60
2019-03-21T07:31:33.794Z,11.60
2019-03-21T07:34:15.139Z,11.80
2019-03-21T07:36:32.881Z,11.60
2019-03-21T07:44:28.473Z,11.60
2019-03-21T07:47:14.887Z,10.00
2019-03-21T07:50:01.277Z,9.60
2019-03-21T07:52:29.387Z,12.60
2019-03-21T07:55:15.741Z,9.80
2019-03-21T07:58:02.076Z,11.60
2019-03-21T08:00:48.514Z,10.00
2019-03-21T08:04:05.281Z,9.40
2019-03-21T08:06:22.931Z,11.60
2019-03-21T08:08:50.550Z,9.40
2019-03-21T08:11:36.903Z,11.20
2019-03-21T08:14:23.355Z,7.80
2019-03-21T08:17:09.711Z,12.40
2019-03-21T08:22:30.229Z,11.00
2019-03-21T08:24:57.853Z,11.60
2019-03-21T08:27:44.299Z,11.20
2019-03-21T08:30:11.955Z,9.80
2019-03-21T08:32:58.367Z,11.20
2019-03-21T08:35:25.923Z,15.60
2019-03-21T08:38:12.267Z,10.00
2019-03-21T08:40:42.474Z,9.60
2019-03-21T08:43:09.370Z,15.40
2019-03-21T08:45:39.806Z,9.80
2019-03-21T08:48:07.367Z,8.20
2019-03-21T08:50:35.456Z,9.60
2019-03-21T08:53:03.160Z,13.20
2019-03-21T08:55:30.762Z,12.20
2019-03-21T08:57:58.736Z,10.80
2019-03-21T09:00:34.097Z,13.00
2019-03-21T09:02:55.690Z,12.20
2019-03-21T09:05:23.726Z,10.40
2019-03-21T09:07:52.742Z,12.00
2019-03-21T09:10:20.360Z,9.60
2019-03-21T09:12:48.347Z,12.00
2019-03-21T09:15:15.897Z,13.00
2019-03-21T09:17:43.460Z,13.20
2019-03-21T09:20:15.974Z,10.80
2019-03-21T09:22:48.247Z,12.00
2019-03-21T09:25:14.316Z,13.80
2019-03-21T09:27:42.295Z,14.20
2019-03-21T09:30:10.905Z,12.60
2019-03-21T09:32:40.162Z,10.80
2019-03-21T09:35:09.356Z,14.20
2019-03-21T09:37:36.945Z,14.20
2019-03-21T09:40:04.463Z,15.00
2019-03-21T09:42:32.936Z,14.20
2019-03-21T09:45:02.861Z,13.20
2019-03-21T09:47:30.705Z,15.40
2019-03-21T09:49:59.398Z,15.20
2019-03-21T09:52:36.177Z,12.20
2019-03-21T09:55:03.750Z,6.60
2019-03-21T09:57:32.853Z,14.60
2019-03-21T10:00:00.412Z,7.80
2019-03-21T10:02:28.091Z,9.20
2019-03-21T10:04:55.993Z,12.60
2019-03-21T10:07:23.957Z,12.00
2019-03-21T10:09:51.522Z,6.80
2019-03-21T10:12:23.275Z,7.80
2019-03-21T10:14:50.859Z,13.80
2019-03-21T10:17:18.490Z,13.80
2019-03-21T10:19:48.385Z,11.20
2019-03-21T10:22:15.740Z,9.00
2019-03-21T10:24:43.243Z,10.00
2019-03-21T10:27:11.156Z,13.40
2019-03-21T10:29:38.776Z,11.40
2019-03-21T10:32:14.125Z,9.00
2019-03-21T10:34:36.006Z,4.00
2019-03-21T10:37:03.557Z,1.00
2019-03-21T10:39:32.355Z,6.00
2019-03-21T10:42:00.221Z,5.80
2019-03-21T10:44:29.334Z,7.20
2019-03-21T10:46:56.992Z,9.00
2019-03-21T10:49:25.047Z,6.00
2019-03-21T10:51:55.217Z,3.00
2019-03-21T10:54:23.699Z,6.00
2019-03-21T10:56:51.634Z,6.40
2019-03-21T10:59:19.164Z,5.00
2019-03-21T11:01:46.727Z,9.40
2019-03-21T11:04:14.638Z,7.40
2019-03-21T11:06:42.623Z,5.80
2019-03-21T11:09:10.223Z,5.00
2019-03-21T11:11:39.830Z,8.20
2019-03-21T11:14:07.427Z,6.00
2019-03-21T11:16:37.831Z,6.00
2019-03-21T11:19:05.756Z,5.00
2019-03-21T11:21:35.014Z,5.40
2019-03-21T11:24:02.525Z,5.00
2019-03-21T11:26:32.962Z,6.40
2019-03-21T11:29:03.829Z,7.60
2019-03-21T11:31:31.408Z,7.00
2019-03-21T11:33:59.278Z,8.00
2019-03-21T11:36:37.681Z,6.40
2019-03-21T11:38:56.138Z,7.20
2019-03-21T11:41:25.612Z,8.20
2019-03-21T11:43:56.323Z,8.00
2019-03-21T11:46:24.425Z,10.00
2019-03-21T11:48:55.010Z,7.00
2019-03-21T11:51:22.607Z,9.20
2019-03-21T11:53:50.702Z,7.40
2019-03-21T11:56:20.089Z,8.80
2019-03-21T11:58:54.850Z,7.00
2019-03-21T12:01:23.209Z,7.00
2019-03-21T12:03:50.851Z,7.00
2019-03-21T12:06:18.592Z,10.00
2019-03-21T12:08:46.673Z,7.60
2019-03-21T12:11:14.236Z,6.00
2019-03-21T12:13:41.838Z,7.80
2019-03-21T12:16:09.859Z,6.80
2019-03-21T12:18:37.449Z,8.40
2019-03-21T12:21:05.123Z,3.60
2019-03-21T12:23:33.111Z,7.80
2019-03-21T12:26:01.016Z,6.80
2019-03-21T12:28:36.014Z,6.00
2019-03-21T12:31:03.952Z,7.00
2019-03-21T12:33:34.568Z,8.40
2019-03-21T12:36:04.968Z,7.00
2019-03-21T12:38:32.913Z,6.20
2019-03-21T12:41:00.922Z,7.00
2019-03-21T12:43:28.598Z,7.00
2019-03-21T12:45:56.477Z,8.40
2019-03-21T12:48:25.256Z,5.20
2019-03-21T12:50:52.842Z,6.60
2019-03-21T12:53:20.753Z,2.40
2019-03-21T12:55:48.391Z,7.00
2019-03-21T12:58:15.986Z,7.00
2019-03-21T13:00:45.832Z,2.00
2019-03-21T13:03:13.135Z,7.20
2019-03-21T13:05:43.495Z,8.40
2019-03-21T13:08:14.338Z,6.60
2019-03-21T13:10:41.931Z,6.80
2019-03-21T13:13:09.579Z,10.40
2019-03-21T13:15:37.433Z,7.40
2019-03-21T13:18:08.050Z,9.00
2019-03-21T13:20:38.923Z,9.00
2019-03-21T13:23:11.788Z,6.60
2019-03-21T13:25:39.476Z,9.40
2019-03-21T13:28:07.231Z,10.80
2019-03-21T13:30:37.553Z,7.60
2019-03-21T13:33:05.170Z,4.40
2019-03-21T13:35:33.264Z,7.60
2019-03-21T13:38:01.205Z,7.00
2019-03-21T13:40:28.893Z,9.20
2019-03-21T13:42:56.727Z,7.40
2019-03-21T13:45:24.615Z,1.00
2019-03-21T13:47:53.209Z,7.80
2019-03-21T13:50:22.838Z,8.80
2019-03-21T13:53:03.948Z,7.60
2019-03-21T13:55:22.475Z,11.20
2019-03-21T13:57:55.650Z,8.40
2019-03-21T14:00:23.780Z,8.00
2019-03-21T14:02:51.389Z,8.40
2019-03-21T14:05:21.061Z,8.00
2019-03-21T14:07:48.607Z,7.80
2019-03-21T14:10:19.582Z,2.80
2019-03-21T14:12:47.513Z,7.80
2019-03-21T14:15:17.866Z,8.00
2019-03-21T14:17:45.516Z,8.00
2019-03-21T14:20:13.562Z,8.00
2019-03-21T14:22:41.120Z,8.00
2019-03-21T14:25:14.781Z,7.80
2019-03-21T14:27:42.775Z,7.00
2019-03-21T14:30:13.541Z,7.00
2019-03-21T14:32:47.184Z,8.00
2019-03-21T14:35:12.645Z,8.60
2019-03-21T14:37:43.488Z,9.20
2019-03-21T14:40:13.933Z,7.80
2019-03-21T14:42:41.656Z,9.00
2019-03-21T14:45:09.300Z,9.20
2019-03-21T14:47:37.404Z,8.00
2019-03-21T14:50:07.265Z,5.40
2019-03-21T14:52:34.897Z,8.00
2019-03-21T14:55:04.354Z,6.20
2019-03-21T14:57:34.743Z,8.00
2019-03-21T15:00:02.432Z,8.40
2019-03-21T15:02:30.566Z,10.60
2019-03-21T15:04:58.124Z,8.00
2019-03-21T15:07:25.795Z,8.40
2019-03-21T15:09:53.849Z,8.00
2019-03-21T15:12:23.792Z,8.20
2019-03-21T15:14:51.718Z,8.00
2019-03-21T15:17:22.697Z,8.80
2019-03-21T15:19:50.269Z,8.00
2019-03-21T15:22:17.899Z,7.60
2019-03-21T15:24:46.198Z,9.60
2019-03-21T15:27:17.671Z,6.40
2019-03-21T15:29:46.633Z,6.00
2019-03-21T15:32:14.656Z,9.20
2019-03-21T15:34:42.292Z,8.60
2019-03-21T15:40:01.527Z,8.60
2019-03-21T15:42:29.176Z,7.00
2019-03-21T15:45:27.769Z,7.00
2019-03-21T15:50:38.542Z,8.60
2019-03-21T15:56:12.526Z,7.40
2019-03-21T16:01:32.056Z,6.00
2019-03-21T16:04:18.477Z,7.00
2019-03-21T16:07:04.842Z,9.80
2019-03-21T16:09:32.592Z,9.40
2019-03-21T16:15:19.327Z,8.40
2019-03-21T16:17:36.335Z,10.20
2019-03-21T16:23:02.007Z,8.20
2019-03-21T16:25:48.652Z,6.60
2019-03-21T16:28:29.755Z,8.40
2019-03-21T16:30:47.470Z,9.80
2019-03-21T16:33:15.181Z,10.00
2019-03-21T16:35:45.258Z,9.60
2019-03-21T16:38:13.171Z,9.00
2019-03-21T16:40:40.792Z,7.40
2019-03-21T16:43:08.327Z,9.80
2019-03-21T16:45:37.832Z,9.20
2019-03-21T16:48:09.308Z,9.40
2019-03-21T16:50:40.371Z,9.80
2019-03-21T16:53:09.974Z,9.20
2019-03-21T16:55:37.931Z,9.60
2019-03-21T16:58:13.020Z,9.00
2019-03-21T17:00:40.624Z,4.40
2019-03-21T17:03:11.475Z,9.80
2019-03-21T17:05:39.121Z,8.60
2019-03-21T17:08:11.655Z,9.20
2019-03-21T17:10:36.345Z,7.00
2019-03-21T17:13:05.116Z,6.80
2019-03-21T17:15:33.903Z,9.00
2019-03-21T17:18:01.920Z,7.40
2019-03-21T17:20:29.480Z,11.60
2019-03-21T17:23:02.144Z,7.40
2019-03-21T17:25:31.589Z,8.60
2019-03-21T17:28:00.168Z,6.60
2019-03-21T17:30:29.702Z,7.00
2019-03-21T17:32:57.644Z,7.00
2019-03-21T17:35:25.592Z,7.40
2019-03-21T17:37:53.188Z,7.40
2019-03-21T17:40:21.304Z,7.40
2019-03-21T17:42:53.999Z,6.80
2019-03-21T17:45:21.513Z,7.00
2019-03-21T17:47:49.281Z,7.00
2019-03-21T17:50:16.794Z,8.20
2019-03-21T17:52:44.295Z,8.20
2019-03-21T17:55:12.357Z,5.60
2019-03-21T17:57:44.007Z,10.60
2019-03-21T18:00:11.731Z,9.80
2019-03-21T18:02:40.673Z,10.20
2019-03-21T18:05:08.207Z,13.00
2019-03-21T18:07:35.819Z,10.80
2019-03-21T18:10:06.163Z,11.20
2019-03-21T18:12:33.764Z,11.80
2019-03-21T18:15:01.280Z,10.40
2019-03-21T18:17:29.311Z,11.40
2019-03-21T18:19:57.243Z,12.60
2019-03-21T18:22:25.757Z,10.00
2019-03-21T18:24:54.279Z,12.80
2019-03-21T18:27:21.893Z,12.40
2019-03-21T18:29:49.812Z,13.00
2019-03-21T18:32:21.462Z,13.60
2019-03-21T18:34:49.059Z,14.60
2019-03-21T18:37:16.575Z,11.60
2019-03-21T18:39:47.635Z,12.20
2019-03-21T18:42:15.257Z,12.60
2019-03-21T18:44:45.866Z,14.20
2019-03-21T18:47:13.883Z,12.00
2019-03-21T18:49:41.506Z,12.20
2019-03-21T18:52:09.117Z,16.60
2019-03-21T18:54:37.116Z,13.80
2019-03-21T18:57:04.697Z,12.80
2019-03-21T18:59:32.257Z,12.20
2019-03-21T19:02:02.778Z,12.00
2019-03-21T19:04:31.473Z,10.40
2019-03-21T19:06:59.122Z,10.00
2019-03-21T19:09:27.097Z,11.20
2019-03-21T19:11:54.645Z,11.20
2019-03-21T19:14:24.076Z,11.60
2019-03-21T19:16:54.631Z,9.80
2019-03-21T19:19:22.165Z,9.40
2019-03-21T19:21:49.723Z,12.80
2019-03-21T19:24:17.584Z,13.80
2019-03-21T19:26:45.213Z,6.00
2019-03-21T19:29:14.971Z,11.20
2019-03-21T19:31:47.829Z,15.20
2019-03-21T19:34:15.318Z,8.60
2019-03-21T19:36:43.294Z,14.20
2019-03-21T19:39:10.877Z,14.20
2019-03-21T19:41:38.522Z,13.00
2019-03-21T19:44:09.551Z,10.20
2019-03-21T19:46:37.127Z,11.80
2019-03-21T19:49:09.969Z,15.20
2019-03-21T19:51:38.251Z,13.40
2019-03-21T19:54:05.868Z,15.80
2019-03-21T19:56:33.500Z,12.40
2019-03-21T19:59:01.457Z,10.40
2019-03-21T20:01:29.061Z,9.00
2019-03-21T20:04:00.605Z,12.60
2019-03-21T20:06:30.361Z,13.40
2019-03-21T20:08:57.937Z,10.00
2019-03-21T20:11:25.882Z,12.20
2019-03-21T20:13:53.810Z,15.80
2019-03-21T20:16:24.698Z,12.20
2019-03-21T20:18:54.145Z,12.40
2019-03-21T20:21:24.229Z,12.80
2019-03-21T20:23:51.832Z,15.20
2019-03-21T20:26:19.398Z,14.60
2019-03-21T20:28:49.271Z,11.60
2019-03-21T20:31:16.817Z,11.60
2019-03-21T20:33:44.420Z,14.40
2019-03-21T20:36:12.407Z,12.40
2019-03-21T20:38:43.399Z,15.40
2019-03-21T20:41:09.203Z,14.60
2019-03-21T20:43:37.240Z,9.80
2019-03-21T20:46:04.830Z,9.00
2019-03-21T20:48:32.480Z,13.80
2019-03-21T20:51:02.066Z,13.00
2019-03-21T20:53:29.704Z,12.00
2019-03-21T20:55:57.287Z,10.00
2019-03-21T20:58:25.234Z,9.20
2019-03-21T21:00:52.838Z,15.80
2019-03-21T21:03:20.667Z,11.20
2019-03-21T21:05:53.169Z,2.60
2019-03-21T21:08:23.313Z,9.80
2019-03-21T21:10:52.179Z,12.40
2019-03-21T21:13:22.746Z,12.60
2019-03-21T21:15:50.267Z,12.80
2019-03-21T21:18:20.825Z,8.80
2019-03-21T21:20:51.321Z,12.80
2019-03-21T21:23:18.890Z,12.00
2019-03-21T21:25:46.577Z,14.60
2019-03-21T21:28:19.740Z,12.20
2019-03-21T21:30:47.354Z,9.40
2019-03-21T21:33:17.199Z,13.00
2019-03-21T21:35:49.654Z,11.80
2019-03-21T21:38:17.534Z,12.00
2019-03-21T21:40:45.149Z,9.00
2019-03-21T21:43:13.012Z,8.60
2019-03-21T21:45:40.623Z,12.80
2019-03-21T21:48:10.086Z,10.80
2019-03-21T21:50:38.076Z,9.80
2019-03-21T21:53:07.651Z,9.20
2019-03-21T21:55:35.144Z,12.00
2019-03-21T21:58:10.004Z,10.40
2019-03-21T22:00:37.684Z,8.20
2019-03-21T22:03:05.214Z,10.00
2019-03-21T22:05:33.119Z,10.80
2019-03-21T22:08:00.643Z,10.00
2019-03-21T22:10:29.506Z,9.60
2019-03-21T22:12:57.855Z,15.20
2019-03-21T22:15:25.381Z,11.20
2019-03-21T22:17:52.935Z,14.40
2019-03-21T22:20:20.843Z,9.20
2019-03-21T22:22:48.431Z,7.80
2019-03-21T22:25:16.002Z,13.80
2019-03-21T22:27:52.765Z,13.00
2019-03-21T22:30:20.346Z,14.40
2019-03-21T22:32:47.842Z,15.40
2019-03-21T22:35:16.919Z,15.20
2019-03-21T22:37:44.459Z,16.80
2019-03-21T22:40:15.030Z,10.20
2019-03-21T22:42:42.925Z,15.00
2019-03-21T22:45:10.876Z,15.20
2019-03-21T22:47:38.501Z,14.00
2019-03-21T22:50:29.073Z,12.80
2019-03-21T22:52:58.280Z,12.60
2019-03-21T22:55:41.215Z,13.20
2019-03-21T22:58:06.339Z,12.20
2019-03-21T23:00:46.636Z,10.80
2019-03-21T23:03:14.265Z,12.00
2019-03-21T23:05:41.924Z,10.80
2019-03-21T23:08:09.960Z,12.60
2019-03-21T23:10:37.462Z,6.40
2019-03-21T23:13:04.987Z,12.80
2019-03-21T23:15:32.519Z,14.00
2019-03-21T23:18:02.235Z,12.00
2019-03-21T23:20:29.846Z,10.00
2019-03-21T23:22:57.376Z,10.80
2019-03-21T23:25:24.982Z,12.80
2019-03-21T23:27:52.896Z,12.40
2019-03-21T23:30:22.849Z,9.00
2019-03-21T23:32:51.522Z,9.00
2019-03-21T23:35:23.719Z,10.80
2019-03-21T23:37:51.212Z,9.00
2019-03-21T23:40:18.817Z,9.00
2019-03-21T23:42:46.380Z,9.20
2019-03-21T23:45:14.399Z,10.40
2019-03-21T23:47:41.900Z,8.00
2019-03-21T23:50:12.819Z,9.60
2019-03-21T23:52:40.343Z,9.40
2019-03-21T23:55:08.216Z,7.40
2019-03-21T23:57:35.757Z,10.40
